Time;durP1;ratioP1;P1;durP2;ratioP2;P2;SDS_P1;SDS_P2;PMS_P1;PMS_P2;Temp;Humidity;BMP_temperature;BMP_pressure;BME280_temperature;BME280_humidity;BME280_pressure;Samples;Min_cycle;Max_cycle;Signal;HPM_P1;HPM_P2
2023/06/05 06:04:03;;;;;;;5.60;3.97;;;;;;;20.24;71.55;100657.94;6638018;26;20036;-86
2023/06/05 06:07:06;;;;;;;7.70;4.50;;;;;;;20.11;72.31;100659.00;6645236;26;34124;-86
2023/06/05 06:10:09;;;;;;;4.40;3.87;;;;;;;;;;6639426;26;34886;-86
2023/06/05 06:13:12;;;;;;;9.45;4.30;;;;;;;20.16;72.06;100666.72;6634513;26;34041;-87
2023/06/05 06:16:15;;;;;;;7.20;4.62;;;;;;;20.27;73.81;100661.22;6634322;26;33947;-87
2023/06/05 06:19:23;;;;;;;5.35;4.20;;;;;;;20.18;71.39;100659.34;6632778;26;33719;-87
2023/06/05 06:22:26;;;;;;;9.10;4.85;;;;;;;20.25;70.95;100659.66;6633726;26;34034;-90
2023/06/05 06:25:31;;;;;;;9.23;4.15;;;;;;;20.24;70.44;100653.44;6633740;26;34856;-89
2023/06/05 06:28:34;;;;;;;6.37;4.50;;;;;;;20.41;69.72;100657.34;6633457;26;33791;-87
2023/06/05 06:31:37;;;;;;;8.40;4.37;;;;;;;20.50;70.56;100653.00;6633031;26;34081;-87
2023/06/05 06:34:40;;;;;;;10.13;4.30;;;;;;;20.57;71.41;100653.31;6634298;26;33737;-86
2023/06/05 06:37:44;;;;;;;7.87;4.40;;;;;;;20.73;70.52;100640.16;6635839;26;34119;-88
2023/06/05 06:40:47;;;;;;;8.50;4.18;;;;;;;20.63;68.54;100644.69;6633844;26;34466;-86
2023/06/05 06:43:50;;;;;;;10.07;4.78;;;;;;;20.41;69.75;100649.25;6633920;26;33516;-87
2023/06/05 06:46:53;;;;;;;7.20;4.72;;;;;;;20.53;69.08;100647.34;6633488;26;34330;-86
2023/06/05 06:49:59;;;;;;;7.37;4.50;;;;;;;20.65;69.03;100641.84;6635797;26;33788;-89
2023/06/05 06:53:02;;;;;;;12.45;4.60;;;;;;;20.60;69.41;100648.50;6636312;26;34572;-86
2023/06/05 06:56:05;;;;;;;11.90;4.70;;;;;;;20.71;68.57;100642.16;6635290;26;34099;-85
2023/06/05 06:59:12;;;;;;;6.75;4.50;;;;;;;20.80;68.93;100640.50;6635870;26;33935;-86
2023/06/05 07:02:18;;;;;;;43.50;6.70;;;;;;;20.82;68.01;100641.19;6637263;26;33549;-87
2023/06/05 07:05:22;;;;;;;8.05;4.90;;;;;;;20.90;69.77;100645.94;6635693;26;33902;-89
2023/06/05 07:08:25;;;;;;;6.47;4.50;;;;;;;20.53;72.65;100641.97;6634033;26;33944;-85
2023/06/05 07:11:28;;;;;;;10.98;4.62;;;;;;;20.27;75.56;100646.94;6614523;26;33891;-84
2023/06/05 07:14:33;;;;;;;8.13;4.70;;;;;;;20.20;77.05;100635.81;6634027;26;33742;-85
2023/06/05 07:17:36;;;;;;;9.63;4.50;;;;;;;20.16;76.92;100646.00;6634884;26;34626;-85
2023/06/05 07:20:39;;;;;;;12.07;5.30;;;;;;;20.11;79.67;100639.31;6634923;26;33532;-85
2023/06/05 07:23:42;;;;;;;6.53;4.78;;;;;;;19.86;80.57;100638.72;6637976;26;34934;-85
2023/06/05 07:26:45;;;;;;;6.70;4.80;;;;;;;19.92;82.76;100641.72;6642796;26;33720;-86
2023/06/05 07:29:47;;;;;;;7.60;4.65;;;;;;;20.08;82.72;100644.97;6648121;26;34782;-86
2023/06/05 07:32:53;;;;;;;9.23;4.60;;;;;;;20.11;82.14;100648.25;6634569;26;34153;-85
2023/06/05 07:35:55;;;;;;;6.37;4.75;;;;;;;20.06;77.83;100648.62;6633764;26;33594;-85
2023/06/05 07:38:58;;;;;;;11.70;4.72;;;;;;;20.21;76.07;100656.38;6635530;26;33886;-86
2023/06/05 07:42:01;;;;;;;13.10;4.62;;;;;;;20.28;73.88;100660.28;6634405;26;34007;-85
2023/06/05 07:45:05;;;;;;;14.05;5.05;;;;;;;20.19;66.72;100656.53;6635725;26;34511;-86
2023/06/05 07:48:07;;;;;;;10.68;4.32;;;;;;;20.38;68.01;100660.31;6640206;26;34664;-86
2023/06/05 07:51:10;;;;;;;7.68;3.80;;;;;;;20.44;61.78;100656.22;6633693;26;33864;-87
2023/06/05 07:54:18;;;;;;;14.10;4.35;;;;;;;20.49;59.37;100656.69;6634219;26;33728;-86
2023/06/05 07:57:24;;;;;;;8.95;4.00;;;;;;;20.59;59.54;100662.12;6635104;26;33535;-86
2023/06/05 08:00:26;;;;;;;6.35;4.10;;;;;;;20.45;58.55;100658.78;6633429;26;34318;-86
2023/06/05 08:03:29;;;;;;;7.18;3.67;;;;;;;20.37;61.29;100657.75;6632834;26;33597;-86
2023/06/05 08:06:32;;;;;;;8.70;4.28;;;;;;;20.51;61.22;100657.37;6634538;26;33965;-86
2023/06/05 08:09:36;;;;;;;10.90;4.60;;;;;;;20.50;58.88;100668.28;6633210;26;34071;-86
2023/06/05 08:12:42;;;;;;;7.68;4.22;;;;;;;20.45;60.46;100650.72;6632778;26;33914;-86
2023/06/05 08:15:45;;;;;;;9.05;4.35;;;;;;;20.38;61.01;100652.25;6633317;26;33544;-86
2023/06/05 08:18:48;;;;;;;7.93;4.47;;;;;;;20.45;60.40;100658.78;6633853;26;33983;-86
2023/06/05 08:21:53;;;;;;;7.68;4.28;;;;;;;20.48;62.11;100654.97;6633936;26;33925;-86
2023/06/05 08:24:59;;;;;;;6.40;4.35;;;;;;;20.61;62.62;100660.13;6634735;26;34109;-89
2023/06/05 08:28:02;;;;;;;7.25;4.60;;;;;;;20.62;60.51;100658.28;6634473;26;34310;-90
2023/06/05 08:31:05;;;;;;;10.73;4.90;;;;;;;20.78;59.18;100663.19;6632930;26;34058;-90
2023/06/05 08:34:09;;;;;;;8.35;4.47;;;;;;;20.60;60.42;100661.13;6633307;26;34739;-87
2023/06/05 08:37:11;;;;;;;8.45;4.30;;;;;;;20.56;60.79;100659.66;6632968;26;34694;-87
2023/06/05 08:40:18;;;;;;;8.13;4.47;;;;;;;20.51;60.11;100664.63;6633779;26;33835;-87
2023/06/05 08:43:21;;;;;;;10.57;5.03;;;;;;;20.39;60.55;100658.47;6632766;26;34603;-86
2023/06/05 08:46:33;;;;;;;9.65;4.80;;;;;;;20.52;61.49;100667.16;6632347;26;34209;-87
2023/06/05 08:49:40;;;;;;;9.70;4.70;;;;;;;20.49;64.64;100655.81;6632392;26;33547;-87
2023/06/05 08:52:45;;;;;;;14.45;4.45;;;;;;;20.64;63.53;100657.16;6632836;26;35356;-87
2023/06/05 08:55:53;;;;;;;9.60;4.55;;;;;;;20.62;64.29;100659.16;6631916;26;35085;-86
2023/06/05 08:58:57;;;;;;;9.65;4.60;;;;;;;20.78;64.72;100657.78;6633550;26;34530;-86
2023/06/05 09:02:00;;;;;;;10.55;4.97;;;;;;;20.86;64.03;100664.25;6635509;26;33865;-86
2023/06/05 09:05:04;;;;;;;12.50;4.25;;;;;;;20.95;64.52;100657.16;6647994;26;33936;-86
2023/06/05 09:08:07;;;;;;;9.98;4.45;;;;;;;21.13;63.46;100657.34;6647668;26;34211;-87
2023/06/05 09:11:30;;;;;;;8.98;4.57;;;;;;;21.04;63.59;100658.19;6636985;26;33946;-87
2023/06/05 09:14:35;;;;;;;15.73;4.72;;;;;;;21.10;65.57;100651.38;6632883;26;33826;-86
2023/06/05 09:17:38;;;;;;;10.38;5.15;;;;;;;21.27;64.11;100648.00;6633545;26;34210;-87
2023/06/05 09:20:43;;;;;;;12.00;4.62;;;;;;;21.32;62.54;100649.44;6633442;26;33982;-86
2023/06/05 09:23:48;;;;;;;7.15;4.53;;;;;;;21.51;63.16;100641.34;6635123;26;35079;-86
2023/06/05 09:26:58;;;;;;;8.80;4.45;;;;;;;21.68;60.97;100641.66;6649834;26;33977;-87
2023/06/05 09:30:04;;;;;;;6.80;4.70;;;;;;;21.87;61.33;100640.78;6643868;26;34636;-87
2023/06/05 09:33:10;;;;;;;7.80;4.85;;;;;;;21.83;62.76;100646.63;6634057;26;34382;-87
2023/06/05 09:36:15;;;;;;;11.88;4.65;;;;;;;22.45;62.02;100632.69;6635792;26;35121;-87
2023/06/05 09:39:19;;;;;;;7.07;4.28;;;;;;;22.97;58.94;100631.31;6635171;26;34949;-87
2023/06/05 09:42:32;;;;;;;10.75;5.10;;;;;;;23.10;57.48;100645.34;6635845;26;33493;-87
2023/06/05 09:45:42;;;;;;;8.30;4.32;;;;;;;23.00;56.92;100641.84;6641463;26;33702;-87
2023/06/05 09:49:01;;;;;;;8.48;4.70;;;;;;;22.96;55.45;100644.00;6634510;26;34912;-91
2023/06/05 09:52:04;;;;;;;8.23;4.60;;;;;;;22.80;55.34;100649.22;6634400;26;33812;-89
2023/06/05 09:55:07;;;;;;;10.18;4.70;;;;;;;22.86;53.53;100646.78;6635174;26;33812;-88
2023/06/05 09:58:14;;;;;;;7.75;4.72;;;;;;;23.20;54.19;100647.13;6634199;26;34550;-88
2023/06/05 10:01:23;;;;;;;7.05;4.47;;;;;;;23.53;52.59;100647.50;6635970;26;33639;-88
2023/06/05 10:04:28;;;;;;;6.97;4.75;;;;;;;23.82;51.60;100647.25;6638612;26;34124;-88
2023/06/05 10:07:32;;;;;;;6.30;4.82;;;;;;;23.67;50.18;100649.66;6637455;26;33838;-88
2023/06/05 10:10:36;;;;;;;6.53;4.40;;;;;;;23.72;50.09;100632.09;6640231;26;33945;-88
2023/06/05 10:13:39;;;;;;;7.15;4.80;;;;;;;23.98;49.81;100634.81;6634116;26;34063;-88
2023/06/05 10:16:43;;;;;;;8.50;4.70;;;;;;;24.03;48.87;100632.47;6632371;26;33730;-87
2023/06/05 10:19:45;;;;;;;7.30;4.32;;;;;;;24.42;48.21;100627.66;6635375;26;34030;-88
2023/06/05 10:22:50;;;;;;;7.70;4.80;;;;;;;24.38;47.68;100623.59;6634090;26;33708;-88
2023/06/05 10:25:55;;;;;;;7.55;4.57;;;;;;;24.90;47.59;100617.22;6633976;26;34571;-88
2023/06/05 10:29:25;;;;;;;5.03;4.45;;;;;;;24.89;46.58;100615.53;6633034;26;33422;-88
2023/06/05 10:32:28;;;;;;;10.52;4.90;;;;;;;25.02;47.13;100615.03;6634037;26;34089;-88
2023/06/05 10:36:00;;;;;;;7.55;4.10;;;;;;;25.05;45.85;100608.44;6633457;26;33852;-89
2023/06/05 10:39:03;;;;;;;5.78;3.95;;;;;;;26.08;42.53;100606.25;6635389;26;33879;-88
2023/06/05 10:42:06;;;;;;;10.35;4.15;;;;;;;26.41;41.19;100599.91;6632297;26;33921;-88
2023/06/05 10:45:09;;;;;;;5.03;3.65;;;;;;;26.94;39.01;100602.09;6633764;26;34556;-88
2023/06/05 10:48:12;;;;;;;9.55;3.72;;;;;;;27.49;35.73;100592.00;6633013;26;33838;-87
2023/06/05 10:51:37;;;;;;;7.12;3.67;;;;;;;28.23;34.10;100595.09;6632895;26;33950;-88
2023/06/05 10:55:01;;;;;;;7.93;3.00;;;;;;;27.78;32.12;100600.44;6633676;26;33878;-89
2023/06/05 10:58:09;;;;;;;6.37;3.33;;;;;;;27.14;32.49;100597.00;6632759;26;33400;-89
2023/06/05 11:01:19;;;;;;;7.75;3.47;;;;;;;27.71;32.72;100598.47;6634166;26;33896;-90
2023/06/05 11:04:24;;;;;;;7.20;3.55;;;;;;;28.64;32.07;100591.84;6633213;26;33978;-89
2023/06/05 11:07:30;;;;;;;5.28;3.53;;;;;;;29.02;30.17;100593.56;6632557;26;33962;-88
2023/06/05 11:10:33;;;;;;;4.85;3.00;;;;;;;28.41;29.53;100594.69;6636940;26;34375;-87
2023/06/05 11:13:55;;;;;;;9.73;3.70;;;;;;;27.95;31.08;100584.81;6638926;26;34170;-85
2023/06/05 11:16:58;;;;;;;8.02;3.40;;;;;;;28.28;31.00;100579.00;6638338;26;34176;-87
2023/06/05 11:20:07;;;;;;;7.57;3.70;;;;;;;28.53;31.47;100575.97;6635468;26;33741;-87
2023/06/05 11:23:10;;;;;;;6.72;3.25;;;;;;;27.75;32.93;100579.03;6633778;26;33862;-85
2023/06/05 11:26:38;;;;;;;7.07;3.47;;;;;;;27.97;32.68;100578.09;6631183;26;34137;-88
2023/06/05 11:29:43;;;;;;;6.82;3.20;;;;;;;27.66;32.50;100584.53;6633617;26;34395;-85
2023/06/05 11:32:47;;;;;;;4.50;3.30;;;;;;;27.45;33.25;100583.34;6634780;26;33875;-88
2023/06/05 11:35:52;;;;;;;3.67;3.25;;;;;;;27.30;33.17;100575.13;6632045;26;34392;-87
2023/06/05 11:38:58;;;;;;;3.87;3.20;;;;;;;27.28;35.11;100577.19;6630285;26;34063;-88
2023/06/05 11:42:00;;;;;;;7.70;3.65;;;;;;;27.34;35.12;100575.59;6631882;26;33905;-89
2023/06/05 11:45:11;;;;;;;7.28;3.35;;;;;;;27.23;36.15;100574.16;6633217;26;33824;-89
2023/06/05 11:48:14;;;;;;;;;;;;;;;27.23;34.88;100566.00;6634794;26;34280;-93
2023/06/05 11:51:17;;;;;;;3.97;3.58;;;;;;;27.21;34.37;100559.03;6633578;26;34748;-93
2023/06/05 11:54:39;;;;;;;4.22;3.50;;;;;;;27.58;34.91;100568.28;6637465;26;35610;-93
2023/06/05 11:57:43;;;;;;;4.65;3.28;;;;;;;27.61;35.26;100565.22;6641344;26;33937;-88
2023/06/05 12:01:32;;;;;;;5.93;3.40;;;;;;;27.35;33.28;100562.84;6636214;26;33730;-89
2023/06/05 12:04:34;;;;;;;6.87;3.87;;;;;;;27.02;33.89;100547.59;6635870;26;33722;-90
2023/06/05 12:07:39;;;;;;;4.95;3.40;;;;;;;26.93;34.29;100548.66;6637853;26;34500;-89
2023/06/05 12:10:42;;;;;;;6.68;3.65;;;;;;;26.92;34.88;100539.66;6640245;26;33924;-89
2023/06/05 12:13:49;;;;;;;5.22;3.05;;;;;;;26.97;35.48;100536.41;6646301;26;34054;-89
2023/06/05 12:16:53;;;;;;;4.75;3.45;;;;;;;27.15;35.49;100531.50;6644063;26;35491;-89
2023/06/05 12:19:57;;;;;;;5.57;3.30;;;;;;;26.69;35.32;100524.13;6637193;26;34290;-88
2023/06/05 12:23:00;;;;;;;6.53;3.65;;;;;;;26.63;35.54;100527.56;6636647;26;33728;-88
2023/06/05 12:26:04;;;;;;;5.28;3.60;;;;;;;26.51;36.75;100518.97;6635581;26;33918;-88
2023/06/05 12:29:07;;;;;;;4.03;3.42;;;;;;;26.56;35.35;100522.00;6634766;26;34192;-87
2023/06/05 12:32:21;;;;;;;7.10;3.50;;;;;;;26.66;36.04;100510.91;6641515;26;33554;-89
2023/06/05 12:35:27;;;;;;;5.18;3.72;;;;;;;26.71;35.70;100519.38;6641017;26;34240;-88
2023/06/05 12:38:29;;;;;;;4.68;3.58;;;;;;;26.74;36.83;100512.69;6639657;26;34078;-88
2023/06/05 12:41:35;;;;;;;6.82;3.62;;;;;;;26.10;36.69;100509.94;6641038;26;34412;-88
2023/06/05 12:44:38;;;;;;;4.60;3.72;;;;;;;26.28;36.56;100508.88;6640373;26;33815;-88
2023/06/05 12:47:42;;;;;;;5.85;3.35;;;;;;;26.25;36.59;100506.53;6635896;26;33671;-87
2023/06/05 12:50:45;;;;;;;9.02;3.67;;;;;;;26.19;36.61;100502.59;6636953;26;34500;-89
2023/06/05 12:53:49;;;;;;;4.43;3.40;;;;;;;26.52;36.84;100504.34;6639476;26;33887;-88
2023/06/05 12:56:51;;;;;;;4.47;3.75;;;;;;;26.82;36.42;100500.91;6637948;26;34662;-90
2023/06/05 12:59:55;;;;;;;5.00;3.50;;;;;;;26.69;36.25;100491.47;6639972;26;34180;-88
2023/06/05 13:02:58;;;;;;;5.07;3.65;;;;;;;26.55;34.92;100492.25;6639206;26;35120;-92
2023/06/05 13:06:02;;;;;;;11.30;3.40;;;;;;;26.38;35.90;100489.62;6645188;26;35108;-90
2023/06/05 13:09:05;;;;;;;5.95;3.50;;;;;;;26.49;35.20;100478.34;6643193;26;36661;-92
2023/06/05 13:12:08;;;;;;;5.65;3.10;;;;;;;26.84;35.71;100480.66;6637463;26;34383;-90
2023/06/05 13:15:11;;;;;;;5.78;3.70;;;;;;;27.09;33.93;100483.22;6636403;26;33875;-89
2023/06/05 13:18:14;;;;;;;6.15;3.28;;;;;;;26.86;33.45;100475.06;6634971;26;34300;-88
2023/06/05 13:21:17;;;;;;;6.85;3.60;;;;;;;26.94;35.48;100476.91;6635102;26;33992;-89
2023/06/05 13:24:20;;;;;;;6.18;3.12;;;;;;;26.47;33.72;100472.25;6634764;26;33798;-88
2023/06/05 13:27:23;;;;;;;5.85;3.50;;;;;;;26.62;35.73;100476.91;6635178;26;33692;-88
2023/06/05 13:30:26;;;;;;;5.95;3.28;;;;;;;26.55;33.36;100471.34;6635208;26;33713;-87
2023/06/05 13:33:28;;;;;;;6.43;3.60;;;;;;;26.53;33.76;100470.69;6635469;26;34288;-88
2023/06/05 13:36:31;;;;;;;5.03;3.30;;;;;;;26.59;33.87;100464.50;6639161;26;34185;-90
2023/06/05 13:39:34;;;;;;;11.93;3.65;;;;;;;26.74;34.60;100471.88;6636740;26;33984;-89
2023/06/05 13:42:37;;;;;;;4.62;3.30;;;;;;;26.73;33.32;100468.34;6640055;26;33921;-89
2023/06/05 13:45:39;;;;;;;7.75;3.45;;;;;;;26.71;33.31;100472.25;6652277;26;34958;-89
2023/06/05 13:48:42;;;;;;;5.95;3.50;;;;;;;26.55;34.10;100463.16;6652642;26;35037;-87
2023/06/05 13:51:45;;;;;;;4.87;3.42;;;;;;;26.51;34.03;100468.13;6648931;26;34840;-89
2023/06/05 13:54:48;;;;;;;5.10;3.75;;;;;;;26.37;33.62;100464.31;6652500;26;35328;-91
